createdAt,value
2018-07-05T00:02:26.890Z,4.60
2018-07-05T00:05:07.243Z,4.00
2018-07-05T00:07:47.610Z,4.50
2018-07-05T00:10:28.173Z,4.10
2018-07-05T00:13:08.559Z,4.40
2018-07-05T00:15:48.817Z,4.93
2018-07-05T00:18:29.867Z,3.93
2018-07-05T00:21:10.328Z,4.20
2018-07-05T00:23:50.821Z,4.37
2018-07-05T00:26:25.209Z,4.23
2018-07-05T00:29:06.589Z,3.90
2018-07-05T00:31:46.851Z,4.40
2018-07-05T00:34:27.148Z,4.70
2018-07-05T00:37:08.532Z,4.90
2018-07-05T00:39:48.953Z,4.33
2018-07-05T00:42:29.414Z,3.80
2018-07-05T00:45:09.877Z,4.57
2018-07-05T00:47:50.442Z,4.60
2018-07-05T00:50:31.005Z,4.13
2018-07-05T00:53:12.081Z,4.40
2018-07-05T00:55:52.471Z,4.60
2018-07-05T00:58:26.900Z,4.67
2018-07-05T01:01:07.834Z,4.40
2018-07-05T01:03:48.119Z,4.00
2018-07-05T01:06:28.555Z,4.30
2018-07-05T01:09:09.119Z,5.20
2018-07-05T01:11:49.481Z,4.80
2018-07-05T01:14:29.940Z,4.97
2018-07-05T01:17:10.329Z,3.93
2018-07-05T01:19:50.788Z,4.53
2018-07-05T01:22:31.325Z,4.30
2018-07-05T01:25:12.224Z,4.27
2018-07-05T01:27:52.556Z,4.57
2018-07-05T01:30:33.120Z,4.10
2018-07-05T01:33:13.685Z,4.93
2018-07-05T01:35:54.249Z,4.60
2018-07-05T01:38:34.637Z,4.90
2018-07-05T01:41:15.174Z,5.27
2018-07-05T01:43:55.629Z,4.63
2018-07-05T01:46:36.054Z,4.30
2018-07-05T01:49:16.484Z,4.13
2018-07-05T01:51:56.714Z,4.83
2018-07-05T01:54:37.000Z,5.20
2018-07-05T01:57:17.565Z,4.60
2018-07-05T01:59:58.202Z,4.43
2018-07-05T02:02:38.664Z,4.73
2018-07-05T02:05:19.125Z,4.67
2018-07-05T02:07:59.895Z,4.77
2018-07-05T02:10:40.254Z,4.47
2018-07-05T02:13:20.717Z,4.77
2018-07-05T02:16:01.647Z,4.87
2018-07-05T02:18:42.152Z,4.60
2018-07-05T02:21:22.716Z,5.00
2018-07-05T02:24:03.238Z,3.70
2018-07-05T02:26:43.947Z,4.80
2018-07-05T02:29:24.410Z,4.30
2018-07-05T02:32:04.799Z,4.20
2018-07-05T02:34:45.360Z,5.37
2018-07-05T02:37:30.812Z,4.10
2018-07-05T02:40:12.587Z,4.20
2018-07-05T02:42:54.270Z,4.10
2018-07-05T02:48:42.499Z,4.60
2018-07-05T02:51:24.693Z,4.50
2018-07-05T02:53:59.178Z,3.90
2018-07-05T02:56:39.468Z,4.63
2018-07-05T02:59:19.801Z,4.27
2018-07-05T03:02:00.163Z,5.20
2018-07-05T03:04:40.620Z,4.23
2018-07-05T03:07:21.289Z,4.17
2018-07-05T03:10:01.752Z,4.10
2018-07-05T03:12:42.418Z,3.83
2018-07-05T03:15:22.778Z,4.10
2018-07-05T03:18:03.958Z,4.00
2018-07-05T03:20:44.316Z,4.40
2018-07-05T03:23:24.803Z,4.00
2018-07-05T03:26:05.471Z,4.30
2018-07-05T03:28:45.907Z,3.90
2018-07-05T03:31:26.573Z,4.30
2018-07-05T03:34:07.064Z,4.20
2018-07-05T03:36:47.631Z,4.13
2018-07-05T03:39:28.092Z,4.37
2018-07-05T03:42:08.727Z,4.23
2018-07-05T03:44:49.214Z,5.07
2018-07-05T03:47:29.757Z,4.17
2018-07-05T03:50:10.318Z,4.57
2018-07-05T03:52:50.779Z,4.07
2018-07-05T03:55:31.139Z,4.60
2018-07-05T03:58:11.601Z,4.20
2018-07-05T04:00:52.165Z,4.40
2018-07-05T04:03:32.627Z,4.40
2018-07-05T04:06:13.116Z,4.20
2018-07-05T04:08:53.653Z,4.30
2018-07-05T04:11:34.320Z,4.00
2018-07-05T04:14:14.987Z,4.33
2018-07-05T04:16:55.449Z,3.97
2018-07-05T04:19:39.904Z,3.93
2018-07-05T04:22:20.366Z,4.40
2018-07-05T04:25:00.896Z,4.23
2018-07-05T04:27:41.332Z,3.73
2018-07-05T04:30:21.676Z,4.27
2018-07-05T04:33:02.010Z,3.30
2018-07-05T04:35:42.569Z,3.97
2018-07-05T04:38:22.932Z,3.93
2018-07-05T04:41:03.394Z,3.70
2018-07-05T04:43:43.958Z,4.10
2018-07-05T04:46:24.625Z,4.57
2018-07-05T04:49:05.287Z,5.07
2018-07-05T04:51:45.651Z,4.77
2018-07-05T04:54:26.218Z,4.80
2018-07-05T04:57:06.576Z,4.53
2018-07-05T04:59:46.861Z,5.03
2018-07-05T05:02:27.149Z,5.00
2018-07-05T05:05:07.580Z,4.20
2018-07-05T05:07:46.985Z,3.77
2018-07-05T05:10:27.379Z,5.23
2018-07-05T05:13:07.737Z,5.40
2018-07-05T05:15:48.472Z,5.30
2018-07-05T05:18:29.835Z,5.03
2018-07-05T05:21:10.143Z,5.20
2018-07-05T05:23:50.477Z,6.07
2018-07-05T05:26:30.865Z,5.17
2018-07-05T05:29:11.504Z,5.50
2018-07-05T05:31:52.070Z,4.40
2018-07-05T05:34:32.945Z,4.13
2018-07-05T05:37:13.330Z,4.80
2018-07-05T05:39:54.189Z,5.30
2018-07-05T05:42:34.735Z,5.63
2018-07-05T05:45:15.196Z,4.90
2018-07-05T05:47:55.556Z,4.70
2018-07-05T05:50:36.049Z,4.33
2018-07-05T05:53:10.374Z,4.40
2018-07-05T05:55:50.825Z,4.80
2018-07-05T05:58:31.481Z,4.80
2018-07-05T06:01:11.827Z,4.20
2018-07-05T06:03:53.204Z,3.60
2018-07-05T06:06:33.670Z,4.23
2018-07-05T06:09:14.131Z,4.00
2018-07-05T06:11:54.521Z,3.77
2018-07-05T06:14:35.018Z,3.73
2018-07-05T06:17:15.414Z,4.33
2018-07-05T06:19:55.978Z,3.37
2018-07-05T06:22:36.468Z,3.67
2018-07-05T06:25:16.933Z,3.67
2018-07-05T06:27:57.244Z,4.47
2018-07-05T06:30:37.768Z,3.70
2018-07-05T06:33:18.322Z,3.50
2018-07-05T06:35:58.695Z,3.47
2018-07-05T06:38:39.109Z,2.90
2018-07-05T06:41:19.599Z,3.60
2018-07-05T06:44:00.038Z,3.73
2018-07-05T06:46:40.705Z,3.07
2018-07-05T06:49:21.030Z,4.50
2018-07-05T06:52:01.317Z,4.03
2018-07-05T06:54:41.704Z,3.60
2018-07-05T06:57:22.139Z,3.50
2018-07-05T07:00:02.702Z,3.73
2018-07-05T07:02:43.163Z,3.33
2018-07-05T07:05:23.551Z,3.10
2018-07-05T07:07:57.698Z,3.30
2018-07-05T07:10:38.041Z,3.07
2018-07-05T07:13:18.280Z,3.30
2018-07-05T07:15:58.729Z,2.73
2018-07-05T07:18:39.203Z,2.87
2018-07-05T07:21:19.741Z,3.05
2018-07-05T07:24:00.305Z,2.75
2018-07-05T07:26:41.204Z,2.85
2018-07-05T07:29:21.946Z,2.72
2018-07-05T07:32:02.424Z,2.85
2018-07-05T07:34:42.756Z,3.22
2018-07-05T07:37:23.143Z,2.77
2018-07-05T07:40:03.386Z,3.10
2018-07-05T07:42:31.400Z,2.98
2018-07-05T07:44:59.527Z,3.05
2018-07-05T07:47:28.521Z,2.80
2018-07-05T07:49:56.386Z,2.72
2018-07-05T07:52:24.351Z,2.62
2018-07-05T07:54:52.324Z,2.98
2018-07-05T07:57:20.324Z,2.77
2018-07-05T07:59:48.365Z,3.08
2018-07-05T08:02:16.441Z,2.92
2018-07-05T08:04:44.209Z,2.95
2018-07-05T08:07:12.169Z,2.98
2018-07-05T08:09:39.946Z,3.17
2018-07-05T08:12:07.718Z,2.75
2018-07-05T08:14:35.481Z,3.02
2018-07-05T08:17:03.249Z,3.08
2018-07-05T08:19:31.009Z,2.90
2018-07-05T08:21:58.772Z,3.12
2018-07-05T08:24:26.527Z,2.60
2018-07-05T08:26:54.285Z,3.37
2018-07-05T08:29:22.070Z,3.08
2018-07-05T08:31:49.828Z,2.95
2018-07-05T08:34:17.753Z,2.65
2018-07-05T08:36:45.521Z,3.15
2018-07-05T08:39:13.286Z,3.10
2018-07-05T08:41:41.037Z,3.05
2018-07-05T08:44:08.793Z,2.37
2018-07-05T08:46:36.548Z,2.65
2018-07-05T08:49:04.328Z,2.58
2018-07-05T08:51:32.096Z,2.90
2018-07-05T08:53:59.849Z,2.80
2018-07-05T08:56:27.610Z,2.85
2018-07-05T08:58:55.383Z,3.12
2018-07-05T09:01:23.159Z,3.10
2018-07-05T09:03:50.934Z,3.50
2018-07-05T09:06:18.745Z,3.40
2018-07-05T09:08:46.500Z,2.83
2018-07-05T09:11:14.279Z,3.30
2018-07-05T09:13:42.029Z,2.90
2018-07-05T09:16:09.826Z,3.22
2018-07-05T09:18:37.584Z,3.00
2018-07-05T09:21:05.344Z,3.15
2018-07-05T09:23:33.294Z,2.90
2018-07-05T09:26:00.970Z,2.40
2018-07-05T09:28:28.719Z,2.85
2018-07-05T09:30:56.527Z,3.27
2018-07-05T09:33:24.299Z,3.10
2018-07-05T09:35:52.072Z,2.77
2018-07-05T09:38:19.824Z,3.37
2018-07-05T09:40:47.585Z,2.93
2018-07-05T09:43:15.340Z,2.57
2018-07-05T09:45:43.111Z,2.73
2018-07-05T09:48:10.876Z,2.60
2018-07-05T09:50:38.628Z,2.95
2018-07-05T09:53:06.440Z,2.70
2018-07-05T09:55:34.250Z,2.55
2018-07-05T09:58:02.274Z,2.50
2018-07-05T10:00:35.093Z,3.40
2018-07-05T10:03:02.856Z,3.00
2018-07-05T10:05:30.621Z,3.27
2018-07-05T10:07:58.392Z,2.80
2018-07-05T10:10:26.351Z,3.35
2018-07-05T10:12:54.255Z,3.58
2018-07-05T10:15:21.987Z,3.05
2018-07-05T10:17:49.750Z,3.37
2018-07-05T10:20:17.790Z,3.60
2018-07-05T10:22:45.857Z,3.47
2018-07-05T10:25:13.612Z,3.15
2018-07-05T10:27:41.376Z,3.08
2018-07-05T10:30:21.673Z,3.37
2018-07-05T10:33:02.311Z,3.47
2018-07-05T10:35:30.156Z,3.30
2018-07-05T10:37:59.886Z,3.80
2018-07-05T10:40:41.514Z,3.80
2018-07-05T10:43:22.041Z,4.03
2018-07-05T10:46:02.705Z,3.47
2018-07-05T10:48:43.269Z,3.73
2018-07-05T10:51:23.632Z,4.10
2018-07-05T10:54:03.924Z,4.63
2018-07-05T10:56:38.414Z,3.73
2018-07-05T10:59:19.004Z,4.10
2018-07-05T11:01:53.227Z,3.73
2018-07-05T11:04:27.609Z,3.47
2018-07-05T11:07:08.410Z,3.87
2018-07-05T11:09:49.075Z,3.50
2018-07-05T11:12:29.438Z,3.80
2018-07-05T11:15:03.820Z,3.77
2018-07-05T11:17:44.441Z,4.33
2018-07-05T11:20:18.556Z,4.00
2018-07-05T11:22:58.896Z,4.23
2018-07-05T11:25:33.222Z,3.90
2018-07-05T11:28:13.487Z,3.27
2018-07-05T11:30:47.754Z,3.57
2018-07-05T11:33:28.249Z,3.90
2018-07-05T11:36:08.810Z,3.70
2018-07-05T11:38:49.070Z,3.40
2018-07-05T11:41:29.500Z,3.53
2018-07-05T11:44:10.167Z,4.40
2018-07-05T11:46:51.722Z,3.77
2018-07-05T11:49:32.553Z,3.67
2018-07-05T11:52:12.582Z,3.80
2018-07-05T11:54:52.686Z,5.23
2018-07-05T11:57:32.652Z,4.17
2018-07-05T12:00:13.451Z,3.50
2018-07-05T12:02:53.967Z,3.50
2018-07-05T12:05:28.531Z,3.60
2018-07-05T12:08:09.000Z,4.53
2018-07-05T12:10:49.666Z,4.83
2018-07-05T12:13:29.733Z,4.10
2018-07-05T12:16:09.895Z,4.00
2018-07-05T12:18:49.836Z,3.80
2018-07-05T12:21:29.926Z,3.70
2018-07-05T12:24:09.845Z,3.93
2018-07-05T12:26:50.220Z,4.20
2018-07-05T12:29:30.493Z,3.90
2018-07-05T12:32:10.935Z,4.03
2018-07-05T12:34:51.322Z,3.60
2018-07-05T12:37:31.725Z,4.30
2018-07-05T12:40:12.227Z,3.70
2018-07-05T12:42:52.577Z,3.87
2018-07-05T12:45:26.864Z,3.93
2018-07-05T12:48:07.252Z,4.00
2018-07-05T12:50:47.583Z,3.70
2018-07-05T12:53:28.048Z,4.23
2018-07-05T12:56:08.637Z,4.30
2018-07-05T12:58:48.997Z,4.97
2018-07-05T13:01:29.463Z,4.03
2018-07-05T13:04:09.958Z,5.03
2018-07-05T13:06:50.298Z,4.40
2018-07-05T13:09:24.542Z,3.90
2018-07-05T13:12:04.821Z,4.40
2018-07-05T13:14:45.033Z,4.00
2018-07-05T13:17:19.244Z,3.60
2018-07-05T13:19:53.618Z,3.53
2018-07-05T13:22:34.018Z,4.17
2018-07-05T13:25:14.475Z,4.00
2018-07-05T13:27:54.930Z,3.67
2018-07-05T13:30:35.366Z,4.67
2018-07-05T13:33:15.661Z,4.20
2018-07-05T13:35:49.941Z,4.27
2018-07-05T13:38:30.401Z,5.03
2018-07-05T13:41:10.960Z,4.07
2018-07-05T13:43:51.422Z,4.03
2018-07-05T13:46:31.785Z,4.57
2018-07-05T13:49:12.381Z,4.30
2018-07-05T13:51:52.702Z,4.37
2018-07-05T13:54:33.172Z,4.17
2018-07-05T13:57:13.762Z,4.20
2018-07-05T13:59:54.437Z,4.90
2018-07-05T14:02:28.665Z,4.27
2018-07-05T14:05:03.141Z,5.30
2018-07-05T14:07:43.605Z,4.20
2018-07-05T14:10:23.802Z,5.07
2018-07-05T14:13:03.964Z,5.30
2018-07-05T14:15:38.235Z,5.00
2018-07-05T14:18:18.602Z,5.33
2018-07-05T14:20:58.846Z,4.80
2018-07-05T14:23:39.338Z,4.70
2018-07-05T14:26:19.566Z,4.77
2018-07-05T14:29:00.062Z,4.53
2018-07-05T14:31:40.628Z,4.80
2018-07-05T14:34:21.050Z,4.20
2018-07-05T14:37:02.056Z,4.23
2018-07-05T14:39:42.847Z,4.70
2018-07-05T14:42:17.055Z,5.00
2018-07-05T14:44:57.559Z,4.70
2018-07-05T14:47:37.865Z,5.30
2018-07-05T14:50:18.124Z,4.93
2018-07-05T14:52:58.589Z,5.50
2018-07-05T14:55:39.044Z,6.60
2018-07-05T14:58:19.502Z,4.83
2018-07-05T15:01:00.051Z,5.13
2018-07-05T15:03:40.503Z,5.10
2018-07-05T15:06:20.898Z,5.20
2018-07-05T15:09:01.536Z,4.53
2018-07-05T15:11:41.888Z,4.77
2018-07-05T15:14:22.278Z,4.20
2018-07-05T15:17:02.507Z,4.63
2018-07-05T15:19:42.762Z,4.40
2018-07-05T15:22:22.957Z,4.50
2018-07-05T15:25:03.174Z,4.70
2018-07-05T15:27:43.739Z,4.67
2018-07-05T15:30:24.197Z,4.30
2018-07-05T15:33:04.770Z,4.83
2018-07-05T15:35:45.330Z,4.80
2018-07-05T15:38:25.718Z,4.20
2018-07-05T15:41:06.181Z,5.10
2018-07-05T15:43:46.715Z,5.47
2018-07-05T15:46:27.177Z,5.70
2018-07-05T15:49:07.360Z,5.50
2018-07-05T15:51:47.692Z,4.93
2018-07-05T15:54:28.093Z,5.17
2018-07-05T15:57:02.403Z,5.37
2018-07-05T15:59:42.730Z,5.53
2018-07-05T16:02:23.192Z,4.70
2018-07-05T16:05:03.681Z,4.30
2018-07-05T16:07:44.245Z,4.87
2018-07-05T16:10:24.568Z,5.37
2018-07-05T16:13:05.038Z,4.70
2018-07-05T16:15:45.165Z,5.00
2018-07-05T16:18:25.125Z,4.30
2018-07-05T16:21:05.279Z,4.90
2018-07-05T16:23:45.351Z,4.07
2018-07-05T16:26:25.344Z,6.00
2018-07-05T16:29:05.440Z,5.03
2018-07-05T16:31:45.610Z,5.57
2018-07-05T16:34:25.753Z,5.17
2018-07-05T16:37:05.789Z,4.97
2018-07-05T16:39:45.960Z,4.30
2018-07-05T16:42:26.053Z,4.90
2018-07-05T16:45:06.167Z,5.03
2018-07-05T16:47:46.267Z,6.00
2018-07-05T16:50:26.273Z,5.57
2018-07-05T16:53:06.352Z,5.00
2018-07-05T16:55:46.329Z,5.20
2018-07-05T16:58:26.452Z,5.57
2018-07-05T17:01:06.460Z,5.33
2018-07-05T17:03:46.543Z,4.27
2018-07-05T17:06:26.644Z,4.70
2018-07-05T17:09:07.339Z,5.40
2018-07-05T17:11:47.372Z,5.10
2018-07-05T17:14:27.740Z,5.13
2018-07-05T17:17:07.999Z,4.90
2018-07-05T17:19:48.132Z,4.40
2018-07-05T17:22:28.256Z,5.07
2018-07-05T17:25:08.428Z,5.40
2018-07-05T17:27:48.813Z,4.67
2018-07-05T17:30:28.745Z,4.93
2018-07-05T17:33:08.842Z,4.70
2018-07-05T17:35:48.974Z,4.37
2018-07-05T17:38:29.093Z,5.10
2018-07-05T17:41:10.040Z,4.83
2018-07-05T17:43:50.503Z,5.70
2018-07-05T17:46:31.600Z,5.17
2018-07-05T17:49:12.125Z,4.07
2018-07-05T17:51:52.746Z,4.80
2018-07-05T17:54:33.734Z,5.47
2018-07-05T17:57:14.240Z,5.53
2018-07-05T17:59:54.743Z,4.67
2018-07-05T18:02:35.756Z,5.00
2018-07-05T18:05:16.326Z,4.60
2018-07-05T18:07:57.365Z,5.70
2018-07-05T18:10:37.987Z,5.13
2018-07-05T18:13:18.808Z,4.23
2018-07-05T18:15:59.622Z,4.50
2018-07-05T18:18:40.279Z,4.60
2018-07-05T18:21:22.073Z,4.70
2018-07-05T18:24:02.991Z,4.90
2018-07-05T18:26:43.773Z,4.30
2018-07-05T18:29:24.407Z,4.50
2018-07-05T18:32:05.576Z,4.73
2018-07-05T18:34:46.056Z,5.03
2018-07-05T18:37:26.967Z,4.70
2018-07-05T18:40:07.813Z,4.60
2018-07-05T18:42:48.525Z,4.30
2018-07-05T18:45:29.737Z,5.00
2018-07-05T18:48:10.090Z,5.97
2018-07-05T18:50:50.819Z,4.77
2018-07-05T18:53:31.642Z,5.77
2018-07-05T18:56:11.653Z,5.10
2018-07-05T18:58:52.149Z,5.40
2018-07-05T19:01:32.879Z,5.30
2018-07-05T19:04:13.779Z,4.80
2018-07-05T19:06:54.521Z,5.77
2018-07-05T19:09:35.764Z,6.40
2018-07-05T19:12:16.229Z,5.50
2018-07-05T19:14:58.074Z,6.27
2018-07-05T19:17:38.702Z,6.00
2018-07-05T19:20:19.711Z,5.43
2018-07-05T19:23:00.129Z,5.90
2018-07-05T19:25:41.023Z,5.73
2018-07-05T19:28:21.973Z,5.70
2018-07-05T19:31:03.989Z,5.50
2018-07-05T19:33:44.586Z,5.53
2018-07-05T19:36:25.506Z,5.50
2018-07-05T19:39:06.573Z,5.47
2018-07-05T19:41:47.601Z,5.03
2018-07-05T19:44:27.793Z,5.00
2018-07-05T19:47:08.696Z,6.00
2018-07-05T19:49:49.270Z,5.20
2018-07-05T19:52:29.396Z,5.37
2018-07-05T19:55:09.352Z,5.27
2018-07-05T19:57:49.436Z,4.87
2018-07-05T20:00:29.516Z,5.30
2018-07-05T20:03:09.625Z,6.30
2018-07-05T20:05:49.575Z,4.87
2018-07-05T20:08:29.641Z,4.83
2018-07-05T20:11:09.542Z,4.10
2018-07-05T20:13:49.652Z,4.70
2018-07-05T20:16:29.624Z,4.50
2018-07-05T20:19:09.760Z,4.50
2018-07-05T20:21:49.836Z,5.17
2018-07-05T20:24:29.789Z,4.63
2018-07-05T20:27:09.853Z,4.50
2018-07-05T20:29:49.923Z,4.60
2018-07-05T20:32:29.872Z,4.80
2018-07-05T20:35:09.960Z,4.37
2018-07-05T20:37:49.897Z,5.17
2018-07-05T20:40:29.979Z,4.00
2018-07-05T20:43:09.977Z,4.10
2018-07-05T20:45:50.057Z,4.60
2018-07-05T20:48:30.021Z,4.30
2018-07-05T20:51:10.396Z,4.47
2018-07-05T20:53:50.702Z,5.00
2018-07-05T20:56:25.006Z,4.67
2018-07-05T20:59:05.289Z,5.00
2018-07-05T21:01:45.657Z,5.27
2018-07-05T21:04:19.819Z,4.70
2018-07-05T21:07:00.080Z,4.43
2018-07-05T21:09:40.421Z,4.67
2018-07-05T21:12:20.519Z,4.87
2018-07-05T21:15:00.468Z,4.43
2018-07-05T21:17:41.033Z,5.73
2018-07-05T21:20:20.990Z,4.97
2018-07-05T21:23:01.085Z,4.70
2018-07-05T21:25:41.194Z,4.80
2018-07-05T21:28:21.549Z,5.17
2018-07-05T21:31:01.853Z,4.93
2018-07-05T21:33:42.448Z,4.80
2018-07-05T21:36:22.580Z,4.03
2018-07-05T21:39:02.697Z,4.07
2018-07-05T21:41:42.695Z,4.23
2018-07-05T21:44:22.869Z,3.47
2018-07-05T21:47:02.814Z,3.73
2018-07-05T21:49:42.877Z,3.53
2018-07-05T21:52:22.947Z,3.67
2018-07-05T21:55:02.874Z,3.07
2018-07-05T21:57:43.429Z,4.00
2018-07-05T22:00:23.528Z,4.03
2018-07-05T22:03:03.536Z,4.00
2018-07-05T22:05:44.040Z,3.53
2018-07-05T22:08:24.221Z,3.27
2018-07-05T22:11:04.850Z,3.97
2018-07-05T22:13:45.796Z,3.33
2018-07-05T22:16:26.417Z,3.90
2018-07-05T22:19:12.013Z,3.70
2018-07-05T22:21:57.288Z,3.80
2018-07-05T22:24:42.388Z,3.60
2018-07-05T22:27:28.068Z,3.63
2018-07-05T22:31:12.534Z,3.70
2018-07-05T22:33:53.020Z,2.87
2018-07-05T22:36:33.593Z,4.00
2018-07-05T22:39:14.153Z,3.23
2018-07-05T22:41:48.542Z,3.40
2018-07-05T22:44:28.870Z,4.17
2018-07-05T22:47:09.293Z,3.50
2018-07-05T22:49:49.620Z,3.63
2018-07-05T22:52:29.878Z,3.72
2018-07-05T22:55:09.987Z,3.50
2018-07-05T22:57:50.332Z,3.03
2018-07-05T23:00:30.589Z,3.50
2018-07-05T23:03:10.906Z,3.33
2018-07-05T23:05:51.470Z,3.60
2018-07-05T23:08:32.034Z,3.67
2018-07-05T23:11:12.593Z,3.97
2018-07-05T23:13:52.969Z,3.77
2018-07-05T23:16:33.522Z,3.70
2018-07-05T23:19:14.087Z,4.10
2018-07-05T23:21:54.476Z,3.73
2018-07-05T23:24:34.858Z,3.37
2018-07-05T23:27:15.012Z,3.77
2018-07-05T23:29:55.348Z,4.30
2018-07-05T23:32:35.981Z,3.87
2018-07-05T23:35:16.448Z,4.50
2018-07-05T23:37:56.809Z,3.90
2018-07-05T23:40:37.093Z,4.40
2018-07-05T23:43:17.527Z,4.70
2018-07-05T23:45:57.985Z,3.87
2018-07-05T23:48:38.449Z,5.03
2018-07-05T23:51:18.809Z,4.80
2018-07-05T23:53:59.270Z,4.93
2018-07-05T23:56:39.352Z,4.60
2018-07-05T23:59:19.668Z,3.57
